CheckWX is a tool to help pilots better visualize weather data.  It is not intended as a substitute for an official pre-flight weather briefing.

12:48:14 UTC

FAPN METAR
Pilanesberg International Airport
Pilanesberg, South Africa
Current

48 mins ago

FAPN 261200Z AUTO 24005G15KT //// // ////// 36/07 Q1015
Observed
Mar-26 @ 12:00 UTC
Wind
  • 240° at 5 KTS
  • Gusting to 15 KTS
Visibility
Temperature
36°C / 97°F
Dewpoint
C / 45°F
Humidity
17%
Altimeter
29.97" Hg
Pressure
1014.92 hPa
Previous

4 hours ago

FAPN 260900Z AUTO 34003KT //// // ////// 30/14 Q1017
Observed
Mar-26 @ 09:00 UTC
Wind
  • 340° at 3 KTS
Visibility
Temperature
30°C / 86°F
Dewpoint
14°C / 57°F
Humidity
38%
Altimeter
30.03" Hg
Pressure
1016.92 hPa
Previous

7 hours ago

FAPN 260600Z AUTO 18001KT //// // ////// 23/14 Q1017
Observed
Mar-26 @ 06:00 UTC
Wind
  • 180° at 1 KTS
Visibility
Temperature
23°C / 73°F
Dewpoint
14°C / 57°F
Humidity
57%
Altimeter
30.03" Hg
Pressure
1016.92 hPa